createdAt,value
2023-02-25T00:00:50.647Z,0.00
2023-02-25T00:02:02.950Z,0.00
2023-02-25T00:02:51.712Z,0.00
2023-02-25T00:03:50.697Z,0.00
2023-02-25T00:04:50.606Z,0.00
2023-02-25T00:05:50.611Z,0.00
2023-02-25T00:06:50.601Z,0.00
2023-02-25T00:07:50.591Z,0.00
2023-02-25T00:08:50.580Z,0.00
2023-02-25T00:09:50.556Z,0.00
2023-02-25T00:10:50.611Z,0.00
2023-02-25T00:11:50.588Z,0.00
2023-02-25T00:12:50.514Z,0.00
2023-02-25T00:13:50.515Z,0.00
2023-02-25T00:14:50.489Z,0.00
2023-02-25T00:15:50.481Z,0.00
2023-02-25T00:16:50.535Z,0.00
2023-02-25T00:17:50.469Z,0.00
2023-02-25T00:18:50.457Z,0.00
2023-02-25T00:19:50.459Z,0.00
2023-02-25T00:20:50.460Z,0.00
2023-02-25T00:21:50.425Z,0.00
2023-02-25T00:22:50.433Z,0.00
2023-02-25T00:23:50.412Z,0.00
2023-02-25T00:24:50.390Z,0.00
2023-02-25T00:25:50.410Z,0.00
2023-02-25T00:26:50.444Z,0.00
2023-02-25T00:27:50.393Z,0.00
2023-02-25T00:28:50.352Z,0.00
2023-02-25T00:29:50.342Z,0.00
2023-02-25T00:30:50.363Z,0.00
2023-02-25T00:31:50.588Z,0.00
2023-02-25T00:32:50.444Z,0.00
2023-02-25T00:33:50.297Z,0.00
2023-02-25T00:34:50.289Z,0.00
2023-02-25T00:35:50.280Z,0.00
2023-02-25T00:36:50.384Z,0.00
2023-02-25T00:37:50.257Z,0.00
2023-02-25T00:38:50.281Z,0.00
2023-02-25T00:39:50.234Z,0.00
2023-02-25T00:40:50.219Z,0.00
2023-02-25T00:41:50.214Z,0.00
2023-02-25T00:42:50.211Z,0.00
2023-02-25T00:43:50.262Z,0.00
2023-02-25T00:44:50.182Z,0.00
2023-02-25T00:45:50.167Z,0.00
2023-02-25T00:46:50.239Z,0.00
2023-02-25T00:47:50.145Z,0.00
2023-02-25T00:48:50.160Z,0.00
2023-02-25T00:49:50.188Z,0.00
2023-02-25T00:50:50.219Z,0.00
2023-02-25T00:51:50.119Z,0.00
2023-02-25T00:52:50.154Z,0.00
2023-02-25T00:53:50.104Z,0.00
2023-02-25T00:54:50.081Z,0.00
2023-02-25T00:55:50.128Z,0.00
2023-02-25T00:56:50.088Z,0.00
2023-02-25T00:57:50.055Z,0.00
2023-02-25T00:58:50.092Z,0.00
2023-02-25T00:59:50.123Z,0.00
2023-02-25T01:00:52.035Z,0.00
2023-02-25T01:01:50.044Z,0.00
2023-02-25T01:02:50.022Z,0.00
2023-02-25T01:03:50.002Z,0.00
2023-02-25T01:04:50.007Z,0.00
2023-02-25T01:05:50.017Z,0.00
2023-02-25T01:06:49.950Z,0.00
2023-02-25T01:07:49.977Z,0.00
2023-02-25T01:08:49.941Z,0.00
2023-02-25T01:09:49.921Z,0.00
2023-02-25T01:10:49.905Z,0.00
2023-02-25T01:11:49.892Z,0.00
2023-02-25T01:12:49.933Z,0.00
2023-02-25T01:13:49.938Z,0.00
2023-02-25T01:14:49.872Z,0.00
2023-02-25T01:15:49.884Z,0.00
2023-02-25T01:16:49.856Z,0.00
2023-02-25T01:17:49.873Z,0.00
2023-02-25T01:18:49.811Z,0.00
2023-02-25T01:19:49.812Z,0.00
2023-02-25T01:20:49.806Z,0.00
2023-02-25T01:21:49.799Z,0.00
2023-02-25T01:22:49.799Z,0.00
2023-02-25T01:23:49.772Z,0.00
2023-02-25T01:24:49.776Z,0.00
2023-02-25T01:25:49.789Z,0.00
2023-02-25T01:26:49.726Z,0.00
2023-02-25T01:27:49.725Z,0.00
2023-02-25T01:28:49.739Z,0.00
2023-02-25T01:29:49.700Z,0.00
2023-02-25T01:30:49.780Z,0.00
2023-02-25T01:31:49.899Z,0.00
2023-02-25T01:32:49.758Z,0.00
2023-02-25T01:33:49.654Z,0.00
2023-02-25T01:34:49.661Z,0.00
2023-02-25T01:35:49.636Z,0.00
2023-02-25T01:36:49.658Z,0.00
2023-02-25T01:37:49.619Z,0.00
2023-02-25T01:38:49.604Z,0.00
2023-02-25T01:39:49.612Z,0.00
2023-02-25T01:40:49.580Z,0.00
2023-02-25T01:41:49.569Z,0.00
2023-02-25T01:42:49.555Z,0.00
2023-02-25T01:43:49.550Z,0.00
2023-02-25T01:44:49.577Z,0.00
2023-02-25T01:45:49.535Z,0.00
2023-02-25T01:46:49.583Z,0.00
2023-02-25T01:47:49.538Z,0.00
2023-02-25T01:48:49.548Z,0.00
2023-02-25T01:49:49.495Z,0.00
2023-02-25T01:50:49.483Z,0.00
2023-02-25T01:51:49.472Z,0.00
2023-02-25T01:52:49.462Z,0.00
2023-02-25T01:53:49.472Z,0.00
2023-02-25T01:54:49.483Z,0.00
2023-02-25T01:55:49.467Z,0.00
2023-02-25T01:56:49.439Z,0.00
2023-02-25T01:57:49.402Z,0.00
2023-02-25T01:58:49.391Z,0.00
2023-02-25T01:59:49.393Z,0.00
2023-02-25T02:00:49.451Z,0.00
2023-02-25T02:01:49.370Z,0.00
2023-02-25T02:02:49.521Z,0.00
2023-02-25T02:03:49.366Z,0.00
2023-02-25T02:04:49.335Z,0.00
2023-02-25T02:05:49.365Z,0.00
2023-02-25T02:06:49.327Z,0.00
2023-02-25T02:07:49.301Z,0.00
2023-02-25T02:08:49.292Z,0.00
2023-02-25T02:09:49.304Z,0.00
2023-02-25T02:10:49.310Z,0.00
2023-02-25T02:11:49.270Z,0.00
2023-02-25T02:12:49.249Z,0.00
2023-02-25T02:13:49.247Z,0.00
2023-02-25T02:14:49.284Z,0.00
2023-02-25T02:15:49.259Z,0.00
2023-02-25T02:16:49.263Z,0.00
2023-02-25T02:17:49.277Z,0.00
2023-02-25T02:18:49.220Z,0.00
2023-02-25T02:19:49.199Z,0.00
2023-02-25T02:20:49.183Z,0.00
2023-02-25T02:21:49.189Z,0.00
2023-02-25T02:22:49.182Z,0.00
2023-02-25T02:23:49.142Z,0.00
2023-02-25T02:24:49.134Z,0.00
2023-02-25T02:25:49.128Z,0.00
2023-02-25T02:26:49.124Z,0.00
2023-02-25T02:27:49.105Z,0.00
2023-02-25T02:28:49.124Z,0.00
2023-02-25T02:29:49.080Z,0.00
2023-02-25T02:30:49.130Z,0.00
2023-02-25T02:31:49.185Z,0.00
2023-02-25T02:32:49.130Z,0.00
2023-02-25T02:33:49.044Z,0.00
2023-02-25T02:34:49.038Z,0.00
2023-02-25T02:35:49.028Z,0.00
2023-02-25T02:36:49.015Z,0.00
2023-02-25T02:37:49.018Z,0.00
2023-02-25T02:38:49.042Z,0.00
2023-02-25T02:39:48.994Z,0.00
2023-02-25T02:40:48.984Z,0.00
2023-02-25T02:41:48.960Z,0.00
2023-02-25T02:42:48.980Z,0.00
2023-02-25T02:43:48.924Z,0.00
2023-02-25T02:44:48.928Z,0.00
2023-02-25T02:45:48.991Z,0.00
2023-02-25T02:46:48.911Z,0.00
2023-02-25T02:47:48.887Z,0.00
2023-02-25T02:48:48.916Z,0.00
2023-02-25T02:49:48.893Z,0.00
2023-02-25T02:50:48.861Z,0.00
2023-02-25T02:51:48.849Z,0.00
2023-02-25T02:52:48.863Z,0.00
2023-02-25T02:53:48.830Z,0.00
2023-02-25T02:54:48.817Z,0.00
2023-02-25T02:55:48.803Z,0.00
2023-02-25T02:56:48.783Z,0.00
2023-02-25T02:57:48.810Z,0.00
2023-02-25T02:58:48.811Z,0.00
2023-02-25T02:59:48.786Z,0.00
2023-02-25T03:00:48.794Z,0.00
2023-02-25T03:01:48.780Z,0.00
2023-02-25T03:02:48.717Z,0.00
2023-02-25T03:03:48.781Z,0.00
2023-02-25T03:04:48.712Z,0.00
2023-02-25T03:05:48.694Z,0.00
2023-02-25T03:06:48.706Z,0.00
2023-02-25T03:07:48.675Z,0.00
2023-02-25T03:08:48.661Z,0.00
2023-02-25T03:09:48.677Z,0.00
2023-02-25T03:10:48.657Z,0.00
2023-02-25T03:11:48.653Z,0.00
2023-02-25T03:12:48.623Z,0.00
2023-02-25T03:13:48.609Z,0.00
2023-02-25T03:14:48.612Z,0.00
2023-02-25T03:15:48.587Z,0.00
2023-02-25T03:16:48.703Z,0.00
2023-02-25T03:17:48.563Z,0.00
2023-02-25T03:18:48.578Z,0.00
2023-02-25T03:19:48.561Z,0.00
2023-02-25T03:20:48.539Z,0.00
2023-02-25T03:21:48.538Z,0.00
2023-02-25T03:22:48.531Z,0.00
2023-02-25T03:23:48.518Z,0.00
2023-02-25T03:24:48.525Z,0.00
2023-02-25T03:25:48.485Z,0.00
2023-02-25T03:26:48.476Z,0.00
2023-02-25T03:27:48.486Z,0.00
2023-02-25T03:28:48.453Z,0.00
2023-02-25T03:29:48.437Z,0.00
2023-02-25T03:30:48.493Z,0.00
2023-02-25T03:31:48.605Z,0.00
2023-02-25T03:32:48.487Z,0.00
2023-02-25T03:33:48.417Z,0.00
2023-02-25T03:34:48.401Z,0.00
2023-02-25T03:35:48.382Z,0.00
2023-02-25T03:36:48.378Z,0.00
2023-02-25T03:37:48.359Z,0.00
2023-02-25T03:38:48.377Z,0.00
2023-02-25T03:39:48.363Z,0.00
2023-02-25T03:40:48.326Z,0.00
2023-02-25T03:41:48.337Z,0.00
2023-02-25T03:42:48.332Z,0.00
2023-02-25T03:43:48.371Z,0.00
2023-02-25T03:44:48.281Z,0.00
2023-02-25T03:45:48.287Z,0.00
2023-02-25T03:46:48.285Z,0.00
2023-02-25T03:47:48.253Z,0.00
2023-02-25T03:48:48.255Z,0.00
2023-02-25T03:49:48.249Z,0.00
2023-02-25T03:50:48.232Z,0.00
2023-02-25T03:51:48.212Z,0.00
2023-02-25T03:52:48.232Z,0.00
2023-02-25T03:53:48.193Z,0.00
2023-02-25T03:54:48.221Z,0.00
2023-02-25T03:55:48.178Z,0.00
2023-02-25T03:56:48.163Z,0.00
2023-02-25T03:57:48.178Z,0.00
2023-02-25T03:58:48.189Z,0.00
2023-02-25T03:59:48.122Z,0.00
2023-02-25T04:00:48.122Z,0.00
2023-02-25T04:01:48.090Z,0.00
2023-02-25T04:02:48.145Z,0.00
2023-02-25T04:03:48.122Z,0.00
2023-02-25T04:04:48.100Z,0.00
2023-02-25T04:05:48.049Z,0.00
2023-02-25T04:06:48.047Z,0.00
2023-02-25T04:07:48.048Z,0.00
2023-02-25T04:08:48.049Z,0.00
2023-02-25T04:09:48.008Z,0.00
2023-02-25T04:10:48.089Z,0.00
2023-02-25T04:11:48.005Z,0.00
2023-02-25T04:12:47.977Z,0.00
2023-02-25T04:13:47.962Z,0.00
2023-02-25T04:14:47.983Z,0.00
2023-02-25T04:15:48.006Z,0.00
2023-02-25T04:16:47.956Z,0.00
2023-02-25T04:17:47.922Z,0.00
2023-02-25T04:18:47.929Z,0.00
2023-02-25T04:19:47.932Z,0.00
2023-02-25T04:20:47.898Z,0.00
2023-02-25T04:21:47.879Z,0.00
2023-02-25T04:22:47.887Z,0.00
2023-02-25T04:23:47.856Z,0.00
2023-02-25T04:24:47.849Z,0.00
2023-02-25T04:25:47.872Z,0.00
2023-02-25T04:26:47.871Z,0.00
2023-02-25T04:27:47.825Z,0.00
2023-02-25T04:28:47.816Z,0.00
2023-02-25T04:29:47.796Z,0.00
2023-02-25T04:30:47.970Z,0.00
2023-02-25T04:31:47.974Z,0.00
2023-02-25T04:32:47.820Z,0.00
2023-02-25T04:33:47.779Z,0.00
2023-02-25T04:34:47.768Z,0.00
2023-02-25T04:35:47.773Z,0.00
2023-02-25T04:36:47.720Z,0.00
2023-02-25T04:37:47.751Z,0.00
2023-02-25T04:38:47.704Z,0.00
2023-02-25T04:39:47.728Z,0.00
2023-02-25T04:40:47.681Z,0.00
2023-02-25T04:41:47.717Z,0.00
2023-02-25T04:42:47.665Z,0.00
2023-02-25T04:43:47.666Z,0.00
2023-02-25T04:44:47.662Z,0.00
2023-02-25T04:45:47.644Z,0.00
2023-02-25T04:46:47.669Z,0.00
2023-02-25T04:47:47.630Z,0.00
2023-02-25T04:48:47.619Z,0.00
2023-02-25T04:49:47.601Z,0.00
2023-02-25T04:50:47.572Z,0.00
2023-02-25T04:51:47.563Z,0.00
2023-02-25T04:52:47.561Z,0.00
2023-02-25T04:53:47.565Z,0.00
2023-02-25T04:54:47.532Z,0.00
2023-02-25T04:55:47.515Z,0.00
2023-02-25T04:56:47.511Z,0.00
2023-02-25T04:57:47.655Z,0.00
2023-02-25T04:58:47.488Z,0.00
2023-02-25T04:59:47.496Z,0.00
2023-02-25T05:00:47.469Z,0.00
2023-02-25T05:01:47.520Z,0.00
2023-02-25T05:02:47.480Z,0.00
2023-02-25T05:03:47.440Z,0.00
2023-02-25T05:04:47.464Z,0.00
2023-02-25T05:05:47.407Z,0.00
2023-02-25T05:06:47.441Z,0.00
2023-02-25T05:07:47.408Z,0.00
2023-02-25T05:08:47.402Z,0.00
2023-02-25T05:09:47.368Z,0.00
2023-02-25T05:10:47.377Z,0.00
2023-02-25T05:11:47.351Z,0.00
2023-02-25T05:12:47.372Z,0.00
2023-02-25T05:13:47.339Z,0.00
2023-02-25T05:14:47.331Z,0.00
2023-02-25T05:15:47.347Z,0.00
2023-02-25T05:16:47.298Z,0.00
2023-02-25T05:17:47.287Z,0.00
2023-02-25T05:18:47.317Z,0.00
2023-02-25T05:19:47.321Z,0.00
2023-02-25T05:20:47.260Z,0.00
2023-02-25T05:21:47.254Z,0.00
2023-02-25T05:22:47.227Z,0.00
2023-02-25T05:23:47.240Z,0.00
2023-02-25T05:24:47.280Z,0.00
2023-02-25T05:25:47.232Z,0.00
2023-02-25T05:26:47.209Z,0.00
2023-02-25T05:27:47.179Z,0.00
2023-02-25T05:28:47.173Z,0.00
2023-02-25T05:29:47.181Z,0.00
2023-02-25T05:30:47.220Z,0.00
2023-02-25T05:31:47.404Z,0.00
2023-02-25T05:32:47.281Z,0.00
2023-02-25T05:33:47.123Z,0.00
2023-02-25T05:34:47.105Z,0.00
2023-02-25T05:35:47.092Z,0.00
2023-02-25T05:36:47.095Z,0.00
2023-02-25T05:37:47.067Z,0.00
2023-02-25T05:38:47.061Z,0.00
2023-02-25T05:39:47.073Z,0.00
2023-02-25T05:40:47.037Z,0.00
2023-02-25T05:41:47.043Z,0.00
2023-02-25T05:42:47.023Z,0.00
2023-02-25T05:43:54.619Z,4.00
2023-02-25T05:44:46.986Z,4.00
2023-02-25T05:45:46.976Z,0.00
2023-02-25T05:46:47.011Z,4.00
2023-02-25T05:47:47.086Z,4.00
2023-02-25T05:48:47.114Z,0.00
2023-02-25T05:49:46.928Z,4.00
2023-02-25T05:50:46.916Z,4.00
2023-02-25T05:51:46.917Z,4.00
2023-02-25T05:52:46.938Z,8.00
2023-02-25T05:53:46.894Z,12.00
2023-02-25T05:54:46.878Z,12.00
2023-02-25T05:55:46.861Z,12.00
2023-02-25T05:56:46.858Z,16.00
2023-02-25T05:57:46.876Z,16.00
2023-02-25T05:58:46.873Z,16.00
2023-02-25T05:59:46.827Z,20.00
2023-02-25T06:00:46.805Z,24.00
2023-02-25T06:01:46.830Z,20.00
2023-02-25T06:02:46.859Z,24.00
2023-02-25T06:03:46.826Z,24.00
2023-02-25T06:04:46.799Z,24.00
2023-02-25T06:05:47.983Z,24.00
2023-02-25T06:06:46.748Z,28.00
2023-02-25T06:07:46.730Z,36.00
2023-02-25T06:08:46.731Z,36.00
2023-02-25T06:09:46.740Z,36.00
2023-02-25T06:10:46.696Z,36.00
2023-02-25T06:11:46.687Z,36.00
2023-02-25T06:12:46.701Z,28.00
2023-02-25T06:13:46.675Z,36.00
2023-02-25T06:14:46.670Z,40.00
2023-02-25T06:15:46.674Z,36.00
2023-02-25T06:16:46.689Z,44.00
2023-02-25T06:17:46.636Z,56.00
2023-02-25T06:18:46.611Z,56.00
2023-02-25T06:19:46.626Z,68.00
2023-02-25T06:20:46.594Z,68.00
2023-02-25T06:21:46.605Z,72.00
2023-02-25T06:22:46.568Z,72.00
2023-02-25T06:23:46.558Z,68.00
2023-02-25T06:24:46.553Z,80.00
2023-02-25T06:25:46.571Z,72.00
2023-02-25T06:26:46.533Z,88.00
2023-02-25T06:27:46.527Z,92.00
2023-02-25T06:28:46.504Z,84.00
2023-02-25T06:29:46.494Z,104.00
2023-02-25T06:30:46.581Z,88.00
2023-02-25T06:31:46.739Z,108.00
2023-02-25T06:32:46.516Z,140.00
2023-02-25T06:33:46.465Z,132.00
2023-02-25T06:34:46.439Z,128.00
2023-02-25T06:35:46.490Z,112.00
2023-02-25T06:36:46.427Z,140.00
2023-02-25T06:37:46.409Z,112.00
2023-02-25T06:38:46.412Z,136.00
2023-02-25T06:39:46.401Z,136.00
2023-02-25T06:40:46.387Z,188.00
2023-02-25T06:41:46.406Z,172.00
2023-02-25T06:42:46.368Z,188.00
2023-02-25T06:43:46.427Z,164.00
2023-02-25T06:44:46.352Z,188.00
2023-02-25T06:45:46.391Z,184.00
2023-02-25T06:46:46.337Z,240.00
2023-02-25T06:47:46.308Z,220.00
2023-02-25T06:48:46.306Z,244.00
2023-02-25T06:49:46.298Z,320.00
2023-02-25T06:50:46.273Z,376.00
2023-02-25T06:51:46.302Z,372.00
2023-02-25T06:52:46.264Z,328.00
2023-02-25T06:53:46.267Z,464.00
2023-02-25T06:54:46.235Z,460.00
2023-02-25T06:55:46.216Z,440.00
2023-02-25T06:56:46.256Z,424.00
2023-02-25T06:57:46.193Z,420.00
2023-02-25T06:58:46.187Z,384.00
2023-02-25T06:59:46.181Z,440.00
2023-02-25T07:00:46.169Z,432.00
2023-02-25T07:01:46.150Z,424.00
2023-02-25T07:02:46.172Z,520.00
2023-02-25T07:03:46.132Z,548.00
2023-02-25T07:04:46.137Z,544.00
2023-02-25T07:05:47.158Z,564.00
2023-02-25T07:06:46.099Z,568.00
2023-02-25T07:07:46.135Z,612.00
2023-02-25T07:08:46.091Z,660.00
2023-02-25T07:09:46.072Z,684.00
2023-02-25T07:10:46.059Z,676.00
2023-02-25T07:11:46.046Z,968.00
2023-02-25T07:12:46.068Z,916.00
2023-02-25T07:13:46.024Z,940.00
2023-02-25T07:14:46.020Z,1180.00
2023-02-25T07:15:46.106Z,956.00
2023-02-25T07:16:46.016Z,1068.00
2023-02-25T07:17:45.989Z,1188.00
2023-02-25T07:18:45.996Z,1256.00
2023-02-25T07:19:45.995Z,1336.00
2023-02-25T07:20:45.949Z,1248.00
2023-02-25T07:21:45.941Z,1348.00
2023-02-25T07:22:45.964Z,1480.00
2023-02-25T07:23:45.930Z,1532.00
2023-02-25T07:24:45.985Z,1356.00
2023-02-25T07:25:45.897Z,1436.00
2023-02-25T07:26:45.893Z,1452.00
2023-02-25T07:27:45.876Z,1456.00
2023-02-25T07:28:45.893Z,1364.00
2023-02-25T07:29:45.886Z,1200.00
2023-02-25T07:30:45.998Z,1332.00
2023-02-25T07:31:45.992Z,1244.00
2023-02-25T07:32:45.960Z,1480.00
2023-02-25T07:33:45.870Z,1336.00
2023-02-25T07:34:45.804Z,1548.00
2023-02-25T07:35:45.790Z,1824.00
2023-02-25T07:36:45.797Z,1452.00
2023-02-25T07:37:45.784Z,1392.00
2023-02-25T07:38:45.760Z,1716.00
2023-02-25T07:39:47.697Z,1400.00
2023-02-25T07:40:45.746Z,1668.00
2023-02-25T07:41:45.724Z,1536.00
2023-02-25T07:42:45.715Z,1384.00
2023-02-25T07:43:45.713Z,1448.00
2023-02-25T07:44:45.728Z,1460.00
2023-02-25T07:45:45.736Z,1504.00
2023-02-25T07:46:45.686Z,1560.00
2023-02-25T07:47:45.677Z,1568.00
2023-02-25T07:48:45.669Z,1348.00
2023-02-25T07:49:45.673Z,1600.00
2023-02-25T07:50:45.684Z,1468.00
2023-02-25T07:51:45.634Z,1564.00
2023-02-25T07:52:45.616Z,1900.00
2023-02-25T07:53:45.607Z,1616.00
2023-02-25T07:54:45.622Z,1792.00
2023-02-25T07:55:45.631Z,2064.00
2023-02-25T07:56:45.578Z,2184.00
2023-02-25T07:57:45.562Z,1904.00
2023-02-25T07:58:45.547Z,2264.00
2023-02-25T07:59:45.548Z,2464.00
2023-02-25T08:00:46.142Z,1892.00
2023-02-25T08:01:45.553Z,2116.00
2023-02-25T08:02:45.566Z,2296.00
2023-02-25T08:03:45.497Z,2340.00
2023-02-25T08:04:45.566Z,2196.00
2023-02-25T08:05:45.518Z,1776.00
2023-02-25T08:06:45.496Z,2076.00
2023-02-25T08:07:45.460Z,2168.00
2023-02-25T08:08:45.447Z,1980.00
2023-02-25T08:09:45.438Z,1820.00
2023-02-25T08:10:45.434Z,1844.00
2023-02-25T08:11:45.438Z,1988.00
2023-02-25T08:12:45.452Z,1400.00
2023-02-25T08:13:45.396Z,1504.00
2023-02-25T08:14:45.377Z,1712.00
2023-02-25T08:15:45.414Z,1624.00
2023-02-25T08:16:45.395Z,1752.00
2023-02-25T08:17:45.361Z,1704.00
2023-02-25T08:18:45.346Z,1632.00
2023-02-25T08:19:45.368Z,1772.00
2023-02-25T08:20:45.332Z,1448.00
2023-02-25T08:21:45.351Z,1804.00
2023-02-25T08:22:45.294Z,1952.00
2023-02-25T08:23:45.321Z,2104.00
2023-02-25T08:24:45.296Z,1892.00
2023-02-25T08:25:45.272Z,1840.00
2023-02-25T08:26:45.275Z,1608.00
2023-02-25T08:27:45.285Z,1796.00
2023-02-25T08:28:45.245Z,1528.00
2023-02-25T08:29:45.224Z,1952.00
2023-02-25T08:30:45.286Z,1892.00
2023-02-25T08:31:45.431Z,2072.00
2023-02-25T08:32:45.382Z,1732.00
2023-02-25T08:33:45.201Z,2016.00
2023-02-25T08:34:47.169Z,1928.00
2023-02-25T08:35:45.161Z,1716.00
2023-02-25T08:36:45.152Z,1432.00
2023-02-25T08:37:45.137Z,1960.00
2023-02-25T08:38:45.160Z,1724.00
2023-02-25T08:39:45.148Z,1852.00
2023-02-25T08:40:45.115Z,2624.00
2023-02-25T08:41:45.100Z,2184.00
2023-02-25T08:42:45.094Z,1732.00
2023-02-25T08:43:45.094Z,1840.00
2023-02-25T08:44:45.076Z,2308.00
2023-02-25T08:45:45.088Z,2044.00
2023-02-25T08:46:45.109Z,2128.00
2023-02-25T08:47:45.034Z,1452.00
2023-02-25T08:48:45.032Z,1792.00
2023-02-25T08:49:45.003Z,1660.00
2023-02-25T08:50:45.022Z,1900.00
2023-02-25T08:51:44.997Z,1816.00
2023-02-25T08:52:44.972Z,1460.00
2023-02-25T08:53:44.960Z,1184.00
2023-02-25T08:54:44.994Z,1264.00
2023-02-25T08:55:44.933Z,1340.00
2023-02-25T08:56:45.480Z,1212.00
2023-02-25T08:57:44.916Z,1276.00
2023-02-25T08:58:44.910Z,1320.00
2023-02-25T08:59:44.923Z,1256.00
2023-02-25T09:00:44.984Z,1420.00
2023-02-25T09:01:45.369Z,1568.00
2023-02-25T09:02:44.866Z,1588.00
2023-02-25T09:03:44.865Z,1616.00
2023-02-25T09:04:44.896Z,2124.00
2023-02-25T09:05:44.863Z,2304.00
2023-02-25T09:06:44.825Z,1436.00
2023-02-25T09:07:44.816Z,1160.00
2023-02-25T09:08:44.823Z,1208.00
2023-02-25T09:09:44.800Z,1240.00
2023-02-25T09:10:50.513Z,1500.00
2023-02-25T09:11:44.789Z,1300.00
2023-02-25T09:12:44.756Z,1264.00
2023-02-25T09:13:44.791Z,1156.00
2023-02-25T09:14:44.734Z,1012.00
2023-02-25T09:15:44.753Z,1168.00
2023-02-25T09:16:44.907Z,1376.00
2023-02-25T09:17:44.709Z,1388.00
2023-02-25T09:18:44.700Z,1500.00
2023-02-25T09:19:44.730Z,1624.00
2023-02-25T09:20:44.676Z,1612.00
2023-02-25T09:21:44.714Z,1704.00
2023-02-25T09:22:44.679Z,1988.00
2023-02-25T09:23:44.685Z,1904.00
2023-02-25T09:24:44.646Z,2060.00
2023-02-25T09:25:44.627Z,2056.00
2023-02-25T09:26:44.605Z,2052.00
2023-02-25T09:27:44.638Z,2116.00
2023-02-25T09:28:44.587Z,2728.00
2023-02-25T09:29:44.583Z,2616.00
2023-02-25T09:30:44.591Z,2660.00
2023-02-25T09:31:44.773Z,3236.00
2023-02-25T09:32:44.666Z,3588.00
2023-02-25T09:33:44.561Z,3860.00
2023-02-25T09:34:44.534Z,4424.00
2023-02-25T09:35:44.549Z,4840.00
2023-02-25T09:36:44.549Z,4824.00
2023-02-25T09:37:44.502Z,4884.00
2023-02-25T09:38:44.508Z,5968.00
2023-02-25T09:39:44.478Z,6392.00
2023-02-25T09:40:44.456Z,6068.00
2023-02-25T09:41:44.455Z,6380.00
2023-02-25T09:42:44.524Z,6656.00
2023-02-25T09:43:44.451Z,5852.00
2023-02-25T09:44:44.443Z,3116.00
2023-02-25T09:45:44.449Z,3420.00
2023-02-25T09:46:44.400Z,2576.00
2023-02-25T09:47:44.468Z,2232.00
2023-02-25T09:48:46.259Z,2000.00
2023-02-25T09:49:44.438Z,2180.00
2023-02-25T09:50:44.354Z,2176.00
2023-02-25T09:51:44.342Z,2480.00
2023-02-25T09:52:44.330Z,2704.00
2023-02-25T09:53:44.340Z,3008.00
2023-02-25T09:54:44.344Z,3824.00
2023-02-25T09:55:44.294Z,4700.00
2023-02-25T09:56:44.294Z,4660.00
2023-02-25T09:57:44.280Z,4980.00
2023-02-25T09:58:44.262Z,4996.00
2023-02-25T09:59:44.295Z,4212.00
2023-02-25T10:00:44.253Z,4164.00
2023-02-25T10:01:44.233Z,3792.00
2023-02-25T10:02:44.474Z,3996.00
2023-02-25T10:03:44.236Z,4264.00
2023-02-25T10:04:44.286Z,5024.00
2023-02-25T10:05:44.225Z,4560.00
2023-02-25T10:06:44.590Z,4552.00
2023-02-25T10:07:44.177Z,4712.00
2023-02-25T10:08:44.169Z,3476.00
2023-02-25T10:09:44.148Z,2720.00
2023-02-25T10:10:44.165Z,2688.00
2023-02-25T10:11:44.199Z,2836.00
2023-02-25T10:12:44.130Z,1500.00
2023-02-25T10:13:44.116Z,1608.00
2023-02-25T10:14:44.092Z,1568.00
2023-02-25T10:15:52.043Z,2096.00
2023-02-25T10:16:45.155Z,2224.00
2023-02-25T10:17:44.078Z,1520.00
2023-02-25T10:18:44.056Z,1204.00
2023-02-25T10:19:44.069Z,1448.00
2023-02-25T10:20:44.030Z,1500.00
2023-02-25T10:21:44.062Z,1120.00
2023-02-25T10:22:44.020Z,944.00
2023-02-25T10:23:44.014Z,732.00
2023-02-25T10:24:44.002Z,700.00
2023-02-25T10:25:44.096Z,772.00
2023-02-25T10:26:43.985Z,884.00
2023-02-25T10:27:43.966Z,1312.00
2023-02-25T10:28:43.961Z,1188.00
2023-02-25T10:29:43.974Z,1212.00
2023-02-25T10:30:44.099Z,1584.00
2023-02-25T10:31:44.234Z,2100.00
2023-02-25T10:32:43.977Z,2812.00
2023-02-25T10:33:43.917Z,3652.00
2023-02-25T10:34:43.891Z,4096.00
2023-02-25T10:35:43.886Z,4400.00
2023-02-25T10:36:43.867Z,4612.00
2023-02-25T10:37:43.867Z,4868.00
2023-02-25T10:38:43.880Z,5276.00
2023-02-25T10:39:43.842Z,5644.00
2023-02-25T10:40:43.837Z,5896.00
2023-02-25T10:41:43.870Z,6148.00
2023-02-25T10:42:43.811Z,6300.00
2023-02-25T10:43:43.792Z,6436.00
2023-02-25T10:44:43.788Z,6448.00
2023-02-25T10:45:43.850Z,6608.00
2023-02-25T10:46:43.753Z,6752.00
2023-02-25T10:47:43.786Z,6944.00
2023-02-25T10:48:43.734Z,7064.00
2023-02-25T10:49:43.759Z,7216.00
2023-02-25T10:50:46.227Z,7400.00
2023-02-25T10:51:43.718Z,7264.00
2023-02-25T10:52:43.708Z,7608.00
2023-02-25T10:53:43.688Z,7696.00
2023-02-25T10:54:43.696Z,7592.00
2023-02-25T10:55:43.681Z,7544.00
2023-02-25T10:56:43.656Z,6988.00
2023-02-25T10:57:43.630Z,7328.00
2023-02-25T10:58:43.629Z,7040.00
2023-02-25T10:59:43.640Z,5720.00
2023-02-25T11:00:43.614Z,5660.00
2023-02-25T11:01:43.780Z,7180.00
2023-02-25T11:02:43.681Z,7160.00
2023-02-25T11:03:43.569Z,6936.00
2023-02-25T11:04:43.572Z,5696.00
2023-02-25T11:05:43.583Z,3848.00
2023-02-25T11:06:43.572Z,5000.00
2023-02-25T11:07:43.554Z,3460.00
2023-02-25T11:08:43.529Z,1804.00
2023-02-25T11:09:43.514Z,1324.00
2023-02-25T11:10:43.509Z,1172.00
2023-02-25T11:11:43.532Z,1548.00
2023-02-25T11:12:43.540Z,1548.00
2023-02-25T11:13:43.476Z,1584.00
2023-02-25T11:14:43.494Z,1972.00
2023-02-25T11:15:46.444Z,1596.00
2023-02-25T11:16:43.591Z,1456.00
2023-02-25T11:17:43.447Z,1740.00
2023-02-25T11:18:43.431Z,1820.00
2023-02-25T11:19:43.422Z,2256.00
2023-02-25T11:20:43.385Z,3376.00
2023-02-25T11:21:43.405Z,3868.00
2023-02-25T11:22:43.507Z,3656.00
2023-02-25T11:23:43.405Z,3500.00
2023-02-25T11:24:43.356Z,3760.00
2023-02-25T11:25:43.342Z,3896.00
2023-02-25T11:26:43.336Z,4024.00
2023-02-25T11:27:43.324Z,4296.00
2023-02-25T11:28:43.324Z,4540.00
2023-02-25T11:29:43.327Z,4776.00
2023-02-25T11:30:43.438Z,5240.00
2023-02-25T11:31:43.546Z,5780.00
2023-02-25T11:32:43.312Z,6364.00
2023-02-25T11:33:43.289Z,5880.00
2023-02-25T11:34:43.250Z,5936.00
2023-02-25T11:35:43.232Z,4680.00
2023-02-25T11:36:43.220Z,3216.00
2023-02-25T11:37:45.282Z,2844.00
2023-02-25T11:38:43.266Z,2000.00
2023-02-25T11:39:43.198Z,1724.00
2023-02-25T11:40:43.187Z,1552.00
2023-02-25T11:41:43.163Z,1456.00
2023-02-25T11:42:43.157Z,2524.00
2023-02-25T11:43:43.142Z,2732.00
2023-02-25T11:44:51.749Z,3180.00
2023-02-25T11:45:43.127Z,3536.00
2023-02-25T11:46:43.164Z,4112.00
2023-02-25T11:47:43.107Z,4404.00
2023-02-25T11:48:43.096Z,5024.00
2023-02-25T11:49:43.070Z,5648.00
2023-02-25T11:50:43.089Z,5840.00
2023-02-25T11:51:43.061Z,5836.00
2023-02-25T11:52:43.044Z,5652.00
2023-02-25T11:53:43.160Z,5512.00
2023-02-25T11:54:43.019Z,5384.00
2023-02-25T11:55:43.038Z,5272.00
2023-02-25T11:56:42.994Z,5200.00
2023-02-25T11:57:42.997Z,5156.00
2023-02-25T11:58:42.993Z,5060.00
2023-02-25T11:59:43.003Z,5132.00
2023-02-25T12:00:42.980Z,5104.00
2023-02-25T12:01:42.942Z,4952.00
2023-02-25T12:02:42.987Z,4800.00
2023-02-25T12:03:42.924Z,4684.00
2023-02-25T12:04:42.930Z,4704.00
2023-02-25T12:05:42.938Z,4672.00
2023-02-25T12:06:42.897Z,4364.00
2023-02-25T12:07:51.151Z,3792.00
2023-02-25T12:08:43.893Z,3248.00
2023-02-25T12:09:42.850Z,2592.00
2023-02-25T12:10:42.848Z,1492.00
2023-02-25T12:11:42.851Z,1564.00
2023-02-25T12:12:42.840Z,1472.00
2023-02-25T12:13:42.860Z,1580.00
2023-02-25T12:14:42.798Z,1744.00
2023-02-25T12:15:42.807Z,1648.00
2023-02-25T12:16:43.926Z,1824.00
2023-02-25T12:17:42.773Z,3380.00
2023-02-25T12:18:42.774Z,3980.00
2023-02-25T12:19:42.757Z,4024.00
2023-02-25T12:20:42.776Z,4532.00
2023-02-25T12:21:42.761Z,4672.00
2023-02-25T12:22:42.711Z,4664.00
2023-02-25T12:23:42.733Z,4604.00
2023-02-25T12:24:42.728Z,4496.00
2023-02-25T12:25:42.710Z,4588.00
2023-02-25T12:26:42.690Z,4060.00
2023-02-25T12:27:42.695Z,2964.00
2023-02-25T12:28:42.650Z,2684.00
2023-02-25T12:29:42.671Z,2488.00
2023-02-25T12:30:42.654Z,2184.00
2023-02-25T12:31:42.805Z,2160.00
2023-02-25T12:32:42.615Z,1716.00
2023-02-25T12:33:42.594Z,1328.00
2023-02-25T12:34:42.599Z,1244.00
2023-02-25T12:35:42.601Z,1056.00
2023-02-25T12:36:42.575Z,1264.00
2023-02-25T12:37:42.553Z,1448.00
2023-02-25T12:38:42.544Z,1636.00
2023-02-25T12:39:42.528Z,1788.00
2023-02-25T12:40:42.625Z,2432.00
2023-02-25T12:41:42.520Z,2528.00